Time;durP1;ratioP1;P1;durP2;ratioP2;P2;SDS_P1;SDS_P2;PMS_P1;PMS_P2;Temp;Humidity;BMP_temperature;BMP_pressure;BME280_temperature;BME280_humidity;BME280_pressure;Samples;Min_cycle;Max_cycle;Signal;HPM_P1;HPM_P2
2021/05/23 00:00:47;;;;;;;7.55;4.68;;;11.50;99.90;;;;;;5105028;28;20323;-41
2021/05/23 00:03:15;;;;;;;8.73;5.10;;;11.50;99.90;;;;;;5106062;28;20038;-42
2021/05/23 00:05:45;;;;;;;6.35;4.90;;;11.50;99.90;;;;;;5104919;28;20093;-40
2021/05/23 00:08:15;;;;;;;8.70;4.78;;;11.50;99.90;;;;;;5106328;28;20027;-40
2021/05/23 00:10:48;;;;;;;8.00;4.60;;;11.50;99.90;;;;;;5105269;28;20395;-41
2021/05/23 00:13:17;;;;;;;8.20;4.70;;;11.50;99.90;;;;;;5105288;28;20467;-41
2021/05/23 00:16:06;;;;;;;9.43;4.80;;;11.50;99.90;;;;;;5105305;28;20023;-40
2021/05/23 00:18:36;;;;;;;10.93;5.25;;;11.50;99.90;;;;;;5105163;28;20130;-42
2021/05/23 00:21:02;;;;;;;7.05;4.63;;;11.40;99.90;;;;;;5105310;28;20095;-42
2021/05/23 00:23:28;;;;;;;7.68;4.93;;;11.40;99.90;;;;;;5105596;28;20199;-40
2021/05/23 00:25:54;;;;;;;7.40;5.55;;;11.40;99.90;;;;;;5105846;28;20402;-42
2021/05/23 00:28:23;;;;;;;6.65;4.88;;;11.40;99.90;;;;;;5103336;28;20020;-41
2021/05/23 00:30:49;;;;;;;7.80;5.38;;;11.40;99.90;;;;;;5104696;28;20035;-41
2021/05/23 00:33:16;;;;;;;9.48;5.85;;;11.40;99.90;;;;;;5106093;28;20020;-41
2021/05/23 00:35:42;;;;;;;8.98;5.93;;;11.40;99.90;;;;;;5108561;28;20027;-42
2021/05/23 00:38:08;;;;;;;10.70;6.75;;;11.40;99.90;;;;;;5109205;28;20036;-40
2021/05/23 00:40:39;;;;;;;9.82;6.50;;;11.40;99.90;;;;;;5109072;28;20024;-41
2021/05/23 00:43:16;;;;;;;9.95;5.80;;;11.40;99.90;;;;;;5108552;28;20050;-42
2021/05/23 00:45:50;;;;;;;9.27;7.18;;;11.40;99.90;;;;;;5108540;28;20015;-41
2021/05/23 00:48:17;;;;;;;7.07;5.95;;;11.40;99.90;;;;;;5108776;28;20393;-40
2021/05/23 00:50:44;;;;;;;7.82;6.28;;;11.40;99.90;;;;;;5108518;28;20023;-42
2021/05/23 00:53:10;;;;;;;8.10;5.53;;;11.40;99.90;;;;;;5109465;28;20016;-41
2021/05/23 00:55:36;;;;;;;7.45;5.70;;;11.40;99.90;;;;;;5107812;28;20027;-41
2021/05/23 00:58:02;;;;;;;8.00;6.65;;;11.40;99.90;;;;;;5107096;28;20031;-42
2021/05/23 01:00:44;;;;;;;7.30;6.22;;;11.40;99.90;;;;;;5108534;28;20066;-41
2021/05/23 01:03:28;;;;;;;9.95;6.70;;;11.30;99.90;;;;;;5108426;28;20095;-40
2021/05/23 01:05:59;;;;;;;8.45;6.15;;;11.30;99.90;;;;;;5107694;28;20039;-42
2021/05/23 01:08:26;;;;;;;7.32;6.20;;;11.30;99.90;;;;;;5109127;27;20065;-41
2021/05/23 01:11:20;;;;;;;9.75;6.63;;;11.30;99.90;;;;;;5107604;28;20020;-41
2021/05/23 01:14:00;;;;;;;8.02;5.97;;;11.30;99.90;;;;;;5108087;28;20072;-41
2021/05/23 01:16:32;;;;;;;9.95;5.78;;;11.30;99.90;;;;;;5105781;28;20042;-41
2021/05/23 01:19:07;;;;;;;9.55;6.53;;;11.30;99.90;;;;;;5107866;27;20084;-41
2021/05/23 01:21:37;;;;;;;7.50;5.75;;;11.30;99.90;;;;;;5104829;28;20016;-42
2021/05/23 01:24:21;;;;;;;8.98;5.85;;;11.30;99.90;;;;;;5108174;28;20054;-38
2021/05/23 01:26:53;;;;;;;8.02;6.15;;;11.30;99.90;;;;;;5105346;28;20349;-39
2021/05/23 01:29:21;;;;;;;6.47;5.38;;;11.30;99.90;;;;;;5108105;28;20031;-42
2021/05/23 01:31:47;;;;;;;9.23;5.68;;;11.20;99.90;;;;;;5107341;28;20015;-42
2021/05/23 01:34:20;;;;;;;8.60;6.38;;;11.20;99.90;;;;;;5108670;28;20023;-41
2021/05/23 01:36:46;;;;;;;11.45;6.07;;;11.20;99.90;;;;;;5107243;28;20068;-40
2021/05/23 01:39:14;;;;;;;8.00;5.97;;;11.20;99.90;;;;;;5107642;28;20447;-41
2021/05/23 01:41:41;;;;;;;8.95;5.85;;;11.20;99.90;;;;;;5107422;28;20420;-41
2021/05/23 01:44:07;;;;;;;7.70;5.93;;;11.20;99.90;;;;;;5107228;28;20053;-40
2021/05/23 01:46:33;;;;;;;10.30;6.10;;;11.20;99.90;;;;;;5107615;28;20026;-41
2021/05/23 01:48:59;;;;;;;8.95;5.07;;;11.20;99.90;;;;;;5108056;28;20093;-42
2021/05/23 01:51:25;;;;;;;10.40;5.80;;;11.20;99.90;;;;;;5107319;28;20024;-41
2021/05/23 01:53:50;;;;;;;8.43;5.63;;;11.10;99.90;;;;;;5107643;28;20467;-41
2021/05/23 01:56:16;;;;;;;9.70;5.38;;;11.10;99.90;;;;;;5107499;28;20357;-41
2021/05/23 01:58:42;;;;;;;9.55;5.63;;;11.20;99.90;;;;;;5106437;28;20157;-42
2021/05/23 02:01:17;;;;;;;9.25;5.57;;;11.10;99.90;;;;;;5108165;28;20494;-41
2021/05/23 02:03:42;;;;;;;9.38;5.32;;;11.10;99.90;;;;;;5106970;28;20019;-41
2021/05/23 02:06:08;;;;;;;10.50;5.30;;;11.00;99.90;;;;;;5106948;28;20373;-40
2021/05/23 02:08:34;;;;;;;9.27;5.57;;;11.00;99.90;;;;;;5107172;28;20091;-41
2021/05/23 02:11:04;;;;;;;10.65;5.80;;;10.90;99.90;;;;;;5107102;28;20104;-41
2021/05/23 02:13:30;;;;;;;7.10;5.30;;;10.90;99.90;;;;;;5107157;28;20031;-44
2021/05/23 02:15:59;;;;;;;9.45;5.80;;;10.80;99.90;;;;;;5107209;28;20027;-41
2021/05/23 02:18:25;;;;;;;6.57;5.38;;;10.80;99.90;;;;;;5103590;28;20039;-43
2021/05/23 02:20:51;;;;;;;9.35;5.85;;;10.90;99.90;;;;;;5106116;28;20467;-41
2021/05/23 02:23:20;;;;;;;7.43;5.95;;;10.80;99.90;;;;;;5107370;28;20026;-40
2021/05/23 02:25:46;;;;;;;9.82;6.10;;;10.80;99.90;;;;;;5106393;28;20097;-41
2021/05/23 02:28:13;;;;;;;7.68;6.18;;;10.80;99.90;;;;;;5106570;28;20027;-41
2021/05/23 02:31:08;;;;;;;9.05;5.72;;;10.90;99.90;;;;;;5107118;28;20019;-41
2021/05/23 02:33:37;;;;;;;12.07;6.80;;;10.90;99.90;;;;;;5105659;28;20076;-41
2021/05/23 02:36:03;;;;;;;7.78;6.00;;;10.90;99.90;;;;;;5106384;28;20062;-41
2021/05/23 02:38:28;;;;;;;9.05;6.03;;;10.90;99.90;;;;;;5106819;28;20071;-41
2021/05/23 02:40:56;;;;;;;8.13;6.75;;;10.80;99.90;;;;;;5106936;28;20431;-41
2021/05/23 02:43:22;;;;;;;10.93;6.43;;;10.80;99.90;;;;;;5106672;28;20454;-39
2021/05/23 02:45:47;;;;;;;11.48;7.22;;;10.80;99.90;;;;;;5106107;28;20024;-41
2021/05/23 02:48:14;;;;;;;7.85;6.47;;;10.90;99.90;;;;;;5106212;28;20564;-40
2021/05/23 02:50:43;;;;;;;10.77;6.63;;;10.80;99.90;;;;;;5106796;28;20019;-41
2021/05/23 02:53:10;;;;;;;9.88;6.65;;;10.90;99.90;;;;;;5106711;28;20470;-41
2021/05/23 02:55:37;;;;;;;9.38;6.82;;;10.90;99.90;;;;;;5105413;28;20030;-41
2021/05/23 02:58:05;;;;;;;10.27;6.68;;;10.90;99.90;;;;;;5105885;28;20053;-42
2021/05/23 03:00:31;;;;;;;7.95;6.60;;;10.90;99.90;;;;;;5106190;28;20382;-42
2021/05/23 03:02:56;;;;;;;10.80;6.55;;;10.90;99.90;;;;;;5106092;28;20020;-41
2021/05/23 03:05:23;;;;;;;9.48;7.05;;;10.90;99.90;;;;;;5106441;28;20032;-43
2021/05/23 03:07:51;;;;;;;11.27;6.88;;;10.90;99.90;;;;;;5106099;28;20031;-40
2021/05/23 03:10:20;;;;;;;10.13;6.85;;;10.90;99.90;;;;;;5106468;28;20056;-43
2021/05/23 03:12:46;;;;;;;10.95;6.90;;;10.80;99.90;;;;;;5105930;28;20047;-41
2021/05/23 03:15:15;;;;;;;8.70;6.68;;;10.80;99.90;;;;;;5106332;28;20027;-41
2021/05/23 03:17:41;;;;;;;10.32;6.78;;;10.80;99.90;;;;;;5105538;28;20615;-41
2021/05/23 03:20:09;;;;;;;11.48;7.57;;;10.80;99.90;;;;;;5106014;28;20173;-41
2021/05/23 03:22:38;;;;;;;12.15;7.15;;;10.70;99.90;;;;;;5105526;28;20027;-41
2021/05/23 03:25:06;;;;;;;8.02;7.22;;;10.80;99.90;;;;;;5106262;28;20024;-41
2021/05/23 03:27:32;;;;;;;11.70;8.75;;;10.70;99.90;;;;;;5106146;28;20431;-41
2021/05/23 03:29:58;;;;;;;9.38;8.18;;;10.70;99.90;;;;;;5105451;28;20027;-42
2021/05/23 03:32:23;;;;;;;11.10;8.65;;;10.70;99.90;;;;;;5105875;28;20436;-41
2021/05/23 03:34:49;;;;;;;10.07;8.32;;;10.80;99.90;;;;;;5105723;28;20202;-41
2021/05/23 03:37:15;;;;;;;9.93;8.88;;;10.80;99.90;;;;;;5106314;28;20023;-42
2021/05/23 03:39:40;;;;;;;13.88;8.85;;;10.80;99.90;;;;;;5105812;28;20036;-41
2021/05/23 03:42:06;;;;;;;13.80;9.70;;;10.80;99.90;;;;;;5106350;28;20051;-43
2021/05/23 03:44:32;;;;;;;12.50;9.48;;;10.80;99.90;;;;;;5104827;28;20023;-41
2021/05/23 03:46:58;;;;;;;13.10;9.65;;;10.90;99.90;;;;;;5105944;28;20107;-41
2021/05/23 03:49:23;;;;;;;11.57;8.88;;;10.90;99.90;;;;;;5105458;28;20576;-41
2021/05/23 03:51:49;;;;;;;11.50;9.35;;;10.90;99.90;;;;;;5104525;28;20024;-41
2021/05/23 03:54:15;;;;;;;13.48;10.27;;;10.90;99.90;;;;;;5105847;28;20326;-40
2021/05/23 03:56:41;;;;;;;11.23;9.60;;;11.00;99.90;;;;;;5104784;28;20019;-43
2021/05/23 03:59:07;;;;;;;11.52;8.82;;;11.00;99.90;;;;;;5105418;28;20062;-40
2021/05/23 04:01:32;;;;;;;13.13;9.63;;;11.00;99.90;;;;;;5105819;28;21230;-41
2021/05/23 04:04:00;;;;;;;11.40;9.50;;;11.00;99.90;;;;;;5104924;28;20023;-41
2021/05/23 04:06:26;;;;;;;12.80;9.52;;;11.00;99.90;;;;;;5104808;28;20055;-41
2021/05/23 04:08:55;;;;;;;12.23;9.80;;;11.00;99.90;;;;;;5108126;28;20100;-40
2021/05/23 04:11:30;;;;;;;13.07;10.80;;;11.00;99.90;;;;;;5109873;28;20030;-41
2021/05/23 04:13:55;;;;;;;14.20;10.60;;;11.00;99.90;;;;;;5109103;28;20031;-41
2021/05/23 04:16:22;;;;;;;13.23;10.38;;;11.00;99.90;;;;;;5109968;28;20550;-40
2021/05/23 04:18:47;;;;;;;13.07;10.68;;;11.00;99.90;;;;;;5108708;28;20051;-40
2021/05/23 04:21:13;;;;;;;13.43;10.38;;;11.00;99.90;;;;;;5109440;28;20019;-41
2021/05/23 04:23:39;;;;;;;12.57;10.80;;;11.10;99.90;;;;;;5109347;28;20073;-40
2021/05/23 04:26:05;;;;;;;12.73;10.25;;;11.10;99.90;;;;;;5109147;28;20310;-41
2021/05/23 04:28:31;;;;;;;13.43;10.38;;;11.10;99.90;;;;;;5109085;28;20081;-40
2021/05/23 04:30:57;;;;;;;14.20;10.65;;;11.20;99.90;;;;;;5109095;27;20028;-40
2021/05/23 04:33:23;;;;;;;11.70;9.95;;;11.10;99.90;;;;;;5109415;28;20087;-40
2021/05/23 04:35:48;;;;;;;13.07;10.70;;;11.10;99.90;;;;;;5108755;28;20073;-41
2021/05/23 04:38:14;;;;;;;12.73;10.77;;;11.10;99.90;;;;;;5109286;28;20039;-41
2021/05/23 04:40:40;;;;;;;11.85;10.30;;;11.10;99.90;;;;;;5108602;28;20107;-41
2021/05/23 04:43:05;;;;;;;13.95;11.40;;;11.10;99.90;;;;;;5108907;28;20012;-41
2021/05/23 04:45:31;;;;;;;13.15;11.68;;;11.20;99.90;;;;;;5108859;28;20038;-40
2021/05/23 04:47:57;;;;;;;13.70;12.27;;;11.20;99.90;;;;;;5108418;28;20055;-40
2021/05/23 04:50:23;;;;;;;13.63;11.77;;;11.20;99.90;;;;;;5108635;28;20055;-41
2021/05/23 04:52:48;;;;;;;15.90;13.88;;;11.30;99.90;;;;;;5108276;28;20082;-44
2021/05/23 04:55:15;;;;;;;16.52;14.10;;;11.30;99.90;;;;;;5109026;28;20028;-41
2021/05/23 04:57:41;;;;;;;19.80;16.45;;;11.40;99.90;;;;;;5107938;28;20058;-44
2021/05/23 05:00:09;;;;;;;19.17;16.42;;;11.40;99.90;;;;;;5109089;28;20067;-38
2021/05/23 05:02:35;;;;;;;19.65;17.05;;;11.50;99.90;;;;;;5108154;27;20016;-41
2021/05/23 05:05:03;;;;;;;23.52;18.98;;;11.50;99.90;;;;;;5109070;28;20118;-41
2021/05/23 05:07:31;;;;;;;23.48;18.75;;;11.60;99.90;;;;;;5108880;28;20065;-43
2021/05/23 05:09:57;;;;;;;21.90;17.95;;;11.50;99.90;;;;;;5107692;28;20432;-41
2021/05/23 05:12:22;;;;;;;27.92;23.30;;;11.60;99.90;;;;;;5108346;28;20616;-40
2021/05/23 05:14:48;;;;;;;31.00;24.05;;;11.60;99.90;;;;;;5108583;28;20024;-41
2021/05/23 05:17:16;;;;;;;27.73;22.08;;;11.60;99.90;;;;;;5108284;28;20019;-41
2021/05/23 05:19:42;;;;;;;26.80;22.20;;;11.70;99.90;;;;;;5106811;28;20032;-41
2021/05/23 05:22:08;;;;;;;25.67;20.83;;;11.70;99.90;;;;;;5108072;28;20054;-41
2021/05/23 05:24:34;;;;;;;25.88;21.20;;;11.70;99.90;;;;;;5107962;28;20123;-42
2021/05/23 05:26:59;;;;;;;25.05;20.30;;;11.70;99.90;;;;;;5108524;28;20093;-40
2021/05/23 05:29:25;;;;;;;29.42;22.70;;;11.70;99.90;;;;;;5107462;28;20521;-41
2021/05/23 05:31:51;;;;;;;34.85;28.23;;;11.70;99.90;;;;;;5107965;28;20020;-41
2021/05/23 05:34:18;;;;;;;33.58;26.63;;;11.80;99.90;;;;;;5108133;28;20050;-41
2021/05/23 05:36:44;;;;;;;33.72;26.92;;;11.80;99.90;;;;;;5107462;27;20045;-42
2021/05/23 05:39:09;;;;;;;34.47;26.98;;;11.80;99.90;;;;;;5107768;28;20118;-42
2021/05/23 05:41:38;;;;;;;32.63;26.10;;;11.80;99.90;;;;;;5107744;28;20107;-43
2021/05/23 05:44:04;;;;;;;32.20;27.02;;;11.90;99.90;;;;;;5107386;28;20035;-44
2021/05/23 05:46:30;;;;;;;35.75;28.85;;;12.00;99.90;;;;;;5107501;28;20031;-42
2021/05/23 05:48:56;;;;;;;33.78;27.27;;;11.90;99.90;;;;;;5107418;28;20460;-39
2021/05/23 05:51:21;;;;;;;33.85;27.23;;;12.00;99.90;;;;;;5106093;28;20091;-40
2021/05/23 05:53:47;;;;;;;30.17;25.27;;;12.00;99.90;;;;;;5106760;28;20154;-40
2021/05/23 05:56:13;;;;;;;27.27;23.73;;;12.00;99.90;;;;;;5107710;28;20023;-40
2021/05/23 05:58:41;;;;;;;30.95;25.95;;;12.00;99.90;;;;;;5106442;28;20490;-40
2021/05/23 06:01:07;;;;;;;31.40;25.48;;;12.10;99.90;;;;;;5108048;28;20018;-40
2021/05/23 06:03:32;;;;;;;33.58;27.02;;;12.10;99.90;;;;;;5107099;28;20048;-42
2021/05/23 06:05:58;;;;;;;27.27;23.85;;;12.10;99.90;;;;;;5106407;28;20053;-42
2021/05/23 06:08:24;;;;;;;35.15;26.15;;;12.10;99.90;;;;;;5107416;28;20358;-40
2021/05/23 06:10:50;;;;;;;36.15;29.17;;;12.10;99.90;;;;;;5106194;28;20027;-41
2021/05/23 06:13:16;;;;;;;35.05;27.58;;;12.10;99.90;;;;;;5107024;28;20028;-40
2021/05/23 06:15:41;;;;;;;33.95;26.90;;;12.20;99.90;;;;;;5106533;28;20031;-39
2021/05/23 06:18:07;;;;;;;31.30;25.92;;;12.20;99.90;;;;;;5107306;28;20111;-40
2021/05/23 06:20:33;;;;;;;37.78;28.65;;;12.20;99.90;;;;;;5106233;28;20024;-41
2021/05/23 06:22:59;;;;;;;37.58;29.00;;;12.20;99.90;;;;;;5106903;28;20127;-40
2021/05/23 06:25:26;;;;;;;32.20;25.75;;;12.10;99.90;;;;;;5106091;28;20452;-41
2021/05/23 06:27:52;;;;;;;31.92;25.20;;;12.10;99.90;;;;;;5106737;28;20012;-41
2021/05/23 06:30:18;;;;;;;28.48;22.95;;;12.00;99.90;;;;;;5107111;28;20032;-41
2021/05/23 06:32:44;;;;;;;25.65;20.95;;;12.00;99.90;;;;;;5105910;28;20572;-39
2021/05/23 06:35:14;;;;;;;25.52;20.08;;;12.00;99.90;;;;;;5107146;28;20405;-40
2021/05/23 06:37:39;;;;;;;25.95;18.23;;;11.90;99.90;;;;;;5106694;28;20277;-39
2021/05/23 06:40:06;;;;;;;23.50;18.20;;;11.80;99.90;;;;;;5105921;28;20220;-41
2021/05/23 06:42:32;;;;;;;24.83;18.15;;;11.80;99.90;;;;;;5106662;28;20043;-39
2021/05/23 06:44:58;;;;;;;25.10;16.95;;;11.70;99.90;;;;;;5106686;28;20134;-41
2021/05/23 06:47:24;;;;;;;27.75;16.92;;;11.70;99.90;;;;;;5108461;27;20106;-40
2021/05/23 06:49:49;;;;;;;22.60;14.88;;;11.70;99.90;;;;;;5105460;28;20384;-40
2021/05/23 06:52:18;;;;;;;20.48;13.63;;;11.70;99.90;;;;;;5104693;28;20020;-41
2021/05/23 06:54:43;;;;;;;21.60;13.65;;;11.70;99.90;;;;;;5105046;28;20024;-41
2021/05/23 06:57:09;;;;;;;19.70;13.35;;;11.70;99.90;;;;;;5106358;28;20035;-42
2021/05/23 06:59:36;;;;;;;16.92;11.77;;;11.70;99.90;;;;;;5105913;28;20047;-41
2021/05/23 07:02:01;;;;;;;19.52;12.77;;;11.70;99.90;;;;;;5105518;28;20366;-43
2021/05/23 07:04:30;;;;;;;17.52;12.07;;;11.60;99.90;;;;;;5106255;28;20470;-40
2021/05/23 07:06:55;;;;;;;18.05;12.85;;;11.60;99.90;;;;;;5105886;28;20339;-41
2021/05/23 07:09:21;;;;;;;20.23;12.43;;;11.60;99.90;;;;;;5107369;28;20027;-41
2021/05/23 07:11:46;;;;;;;19.00;12.23;;;11.50;99.90;;;;;;5104865;28;20629;-41
2021/05/23 07:14:12;;;;;;;20.27;11.95;;;11.50;99.90;;;;;;5106349;28;20020;-42
2021/05/23 07:16:37;;;;;;;18.30;11.45;;;11.50;99.90;;;;;;5106756;28;20455;-41
2021/05/23 07:19:03;;;;;;;15.88;11.38;;;11.50;99.90;;;;;;5113256;27;20078;-45
2021/05/23 07:21:29;;;;;;;21.05;10.82;;;11.60;99.90;;;;;;5120027;28;20044;-43
2021/05/23 07:23:54;;;;;;;15.75;10.93;;;11.60;99.90;;;;;;5106732;28;20023;-41
2021/05/23 07:26:20;;;;;;;15.73;10.60;;;11.60;99.90;;;;;;5106400;28;20103;-42
2021/05/23 07:28:46;;;;;;;15.80;10.05;;;11.60;99.90;;;;;;5106019;28;20011;-47
2021/05/23 07:31:12;;;;;;;16.60;9.80;;;11.70;99.90;;;;;;5106791;28;20024;-46
2021/05/23 07:33:38;;;;;;;14.93;9.85;;;11.70;99.90;;;;;;5106131;28;20030;-41
2021/05/23 07:36:06;;;;;;;16.98;9.65;;;11.70;99.90;;;;;;5105575;28;20024;-41
2021/05/23 07:38:33;;;;;;;16.90;9.63;;;11.70;99.90;;;;;;5106636;28;20102;-45
2021/05/23 07:40:59;;;;;;;11.15;8.98;;;11.80;99.90;;;;;;5106980;28;20389;-46
2021/05/23 07:43:24;;;;;;;19.17;9.65;;;11.80;99.90;;;;;;5107855;28;20023;-41
2021/05/23 07:45:53;;;;;;;11.55;8.20;;;11.90;99.90;;;;;;5108901;28;20522;-42
2021/05/23 07:48:19;;;;;;;13.18;7.97;;;12.00;99.90;;;;;;5109115;28;20187;-41
2021/05/23 07:50:44;;;;;;;14.50;8.40;;;12.00;99.90;;;;;;5107698;28;20024;-41
2021/05/23 07:53:10;;;;;;;13.05;7.55;;;12.00;99.90;;;;;;5110081;28;20111;-41
2021/05/23 07:55:35;;;;;;;14.27;7.95;;;12.10;99.90;;;;;;5109832;28;20066;-42
2021/05/23 07:58:02;;;;;;;10.18;6.75;;;12.10;99.90;;;;;;5108845;27;20047;-39
2021/05/23 08:00:28;;;;;;;14.32;7.78;;;12.00;99.90;;;;;;5110096;28;20050;-44
2021/05/23 08:02:54;;;;;;;12.60;8.23;;;12.00;99.90;;;;;;5108751;28;20019;-41
2021/05/23 08:05:19;;;;;;;11.13;7.05;;;12.00;99.90;;;;;;5109786;28;20028;-42
2021/05/23 08:07:45;;;;;;;11.80;5.90;;;12.00;99.90;;;;;;5109260;28;20665;-42
2021/05/23 08:10:17;;;;;;;8.13;5.30;;;11.90;99.90;;;;;;5109748;28;20043;-41
2021/05/23 08:12:42;;;;;;;15.30;6.28;;;11.90;99.90;;;;;;5108407;28;20107;-42
2021/05/23 08:15:08;;;;;;;12.70;6.03;;;11.90;99.90;;;;;;5108826;28;20170;-40
2021/05/23 08:17:33;;;;;;;14.85;6.72;;;12.00;99.90;;;;;;5110674;27;20027;-40
2021/05/23 08:19:59;;;;;;;14.75;6.93;;;12.00;99.90;;;;;;5108739;27;20036;-41
2021/05/23 08:22:25;;;;;;;10.10;6.40;;;12.10;99.90;;;;;;5123299;27;20606;-41
2021/05/23 08:24:51;;;;;;;15.23;8.13;;;12.20;99.90;;;;;;5111509;27;20362;-41
2021/05/23 08:27:17;;;;;;;10.07;6.20;;;12.20;99.90;;;;;;5107972;28;20023;-39
2021/05/23 08:29:42;;;;;;;14.30;7.55;;;12.20;99.90;;;;;;5108756;28;20028;-41
2021/05/23 08:32:08;;;;;;;13.15;6.82;;;12.20;99.90;;;;;;5109139;28;20085;-42
2021/05/23 08:34:34;;;;;;;12.50;7.40;;;12.30;99.90;;;;;;5112707;27;20012;-40
2021/05/23 08:37:02;;;;;;;11.82;7.13;;;12.40;99.90;;;;;;5114471;27;20039;-43
2021/05/23 08:39:30;;;;;;;14.45;7.75;;;12.60;99.90;;;;;;5113122;27;20047;-41
2021/05/23 08:41:56;;;;;;;13.02;6.93;;;12.70;99.90;;;;;;5107236;27;20462;-42
2021/05/23 08:44:22;;;;;;;12.13;6.72;;;12.80;99.90;;;;;;5117696;27;20039;-41
2021/05/23 08:46:50;;;;;;;9.93;6.32;;;13.00;99.90;;;;;;5104518;28;20031;-42
2021/05/23 08:49:22;;;;;;;10.07;5.72;;;13.20;99.80;;;;;;5103297;28;20016;-41
2021/05/23 08:51:49;;;;;;;12.85;5.70;;;13.30;99.70;;;;;;5104438;28;20107;-40
2021/05/23 08:54:15;;;;;;;8.45;4.70;;;13.40;99.30;;;;;;5104255;28;20016;-40
2021/05/23 08:56:42;;;;;;;10.93;4.57;;;13.40;99.00;;;;;;5105895;28;20027;-40
2021/05/23 08:59:08;;;;;;;6.78;3.88;;;13.40;98.60;;;;;;5106293;27;20116;-41
2021/05/23 09:01:34;;;;;;;10.02;3.83;;;13.50;98.70;;;;;;5105814;28;20102;-40
2021/05/23 09:04:02;;;;;;;4.93;3.33;;;13.40;98.20;;;;;;5107768;28;20395;-41
2021/05/23 09:06:30;;;;;;;6.07;3.17;;;13.30;98.40;;;;;;5107618;28;20118;-41
2021/05/23 09:08:57;;;;;;;6.10;2.83;;;13.30;98.30;;;;;;5107480;28;20027;-40
2021/05/23 09:11:23;;;;;;;7.85;2.83;;;13.40;98.20;;;;;;5107895;28;20027;-41
2021/05/23 09:13:52;;;;;;;8.50;2.83;;;13.40;97.70;;;;;;5107453;28;20039;-41
2021/05/23 09:16:17;;;;;;;6.80;2.53;;;13.40;97.50;;;;;;5107784;28;20413;-40
2021/05/23 09:18:54;;;;;;;5.40;2.58;;;13.40;97.20;;;;;;5107447;28;20039;-41
2021/05/23 09:21:29;;;;;;;9.80;2.78;;;13.30;97.00;;;;;;5107723;28;20058;-40
2021/05/23 09:24:14;;;;;;;8.75;2.72;;;13.40;97.00;;;;;;5107863;28;20050;-41
2021/05/23 09:26:43;;;;;;;8.85;2.47;;;13.40;96.30;;;;;;5107049;28;20027;-43
2021/05/23 09:29:18;;;;;;;7.80;2.75;;;13.50;95.20;;;;;;5107360;28;20027;-42
2021/05/23 09:31:48;;;;;;;4.93;2.08;;;13.50;95.10;;;;;;5106894;28;20487;-41
2021/05/23 09:34:24;;;;;;;4.53;1.55;;;13.50;94.80;;;;;;5107786;28;20122;-41
2021/05/23 09:36:50;;;;;;;6.93;2.00;;;13.70;94.80;;;;;;5104703;28;20455;-44
2021/05/23 09:39:17;;;;;;;3.95;1.77;;;13.70;94.20;;;;;;5107657;28;20031;-39
2021/05/23 09:41:43;;;;;;;3.80;1.42;;;13.70;93.40;;;;;;5107110;28;20072;-43
2021/05/23 09:44:19;;;;;;;4.93;1.67;;;13.80;93.30;;;;;;5107930;28;20020;-41
2021/05/23 09:46:54;;;;;;;5.45;1.98;;;13.90;92.80;;;;;;5108353;27;20144;-43
2021/05/23 09:49:20;;;;;;;4.85;1.45;;;13.90;92.30;;;;;;5107010;28;20026;-42
2021/05/23 09:51:51;;;;;;;3.30;1.35;;;13.80;92.10;;;;;;5102035;27;20053;-41
2021/05/23 09:54:16;;;;;;;4.95;1.55;;;13.80;91.10;;;;;;5116988;27;20015;-41
2021/05/23 09:56:42;;;;;;;5.20;1.70;;;13.80;90.20;;;;;;5107271;27;20070;-41
2021/05/23 09:59:18;;;;;;;5.32;1.35;;;13.80;89.90;;;;;;5112589;27;20050;-41
2021/05/23 10:01:44;;;;;;;5.03;1.35;;;13.80;90.70;;;;;;5115571;27;20023;-42
2021/05/23 10:04:37;;;;;;;3.35;1.27;;;13.80;90.10;;;;;;5107703;27;20024;-41
2021/05/23 10:07:10;;;;;;;4.70;1.40;;;13.80;89.90;;;;;;5098856;27;20028;-40
2021/05/23 10:09:37;;;;;;;4.35;1.60;;;13.90;90.10;;;;;;5114595;27;20033;-40
2021/05/23 10:12:06;;;;;;;3.90;1.27;;;14.00;89.70;;;;;;5106099;27;20030;-38
2021/05/23 10:14:34;;;;;;;3.75;1.60;;;14.10;89.10;;;;;;5106856;28;20500;-40
2021/05/23 10:17:00;;;;;;;4.40;1.63;;;14.20;87.50;;;;;;5108967;27;20027;-40
2021/05/23 10:19:29;;;;;;;3.30;1.52;;;14.30;88.50;;;;;;5110475;27;20463;-41
2021/05/23 10:22:00;;;;;;;5.82;1.80;;;14.50;89.00;;;;;;5123090;27;20027;-40
2021/05/23 10:25:03;;;;;;;4.40;1.97;;;14.60;89.00;;;;;;5107402;27;20039;-41
2021/05/23 10:27:33;;;;;;;4.90;1.83;;;14.80;87.80;;;;;;5083333;28;20307;-40
2021/05/23 10:30:02;;;;;;;6.63;2.05;;;15.00;88.50;;;;;;5109849;27;20019;-41
2021/05/23 10:32:30;;;;;;;5.53;2.20;;;15.10;88.40;;;;;;5106808;27;20766;-41
2021/05/23 10:34:56;;;;;;;4.68;1.90;;;15.10;88.10;;;;;;5108594;27;20064;-41
2021/05/23 10:37:27;;;;;;;5.57;2.00;;;15.00;87.70;;;;;;5110703;27;20039;-41
2021/05/23 10:39:54;;;;;;;5.32;2.00;;;14.90;87.50;;;;;;5106923;27;20031;-41
2021/05/23 10:42:27;;;;;;;4.88;2.10;;;14.90;88.50;;;;;;5120348;27;20023;-40
2021/05/23 10:44:56;;;;;;;5.05;2.10;;;15.00;88.90;;;;;;5110429;27;20024;-41
2021/05/23 10:47:26;;;;;;;5.00;1.90;;;15.00;88.10;;;;;;5104775;28;20706;-41
2021/05/23 10:49:53;;;;;;;7.78;2.20;;;15.10;88.90;;;;;;5107486;27;20034;-40
2021/05/23 10:52:19;;;;;;;7.30;2.45;;;15.10;88.30;;;;;;5110908;27;20042;-38
2021/05/23 10:55:07;;;;;;;5.20;2.10;;;15.10;86.70;;;;;;5110374;27;20023;-41
2021/05/23 10:57:49;;;;;;;3.40;1.70;;;15.00;86.40;;;;;;5118886;27;20027;-38
2021/05/23 11:00:27;;;;;;;4.45;2.30;;;14.90;87.60;;;;;;5103199;28;20051;-41
2021/05/23 11:02:55;;;;;;;7.43;2.20;;;14.90;85.70;;;;;;5106520;28;20024;-40
2021/05/23 11:05:23;;;;;;;4.80;2.03;;;14.90;85.60;;;;;;5106005;27;20026;-40
2021/05/23 11:08:03;;;;;;;6.10;1.92;;;14.80;85.80;;;;;;5106763;28;20015;-42
2021/05/23 11:10:37;;;;;;;4.60;1.98;;;14.80;87.10;;;;;;5118098;27;20043;-39
2021/05/23 11:13:03;;;;;;;7.97;2.40;;;14.80;87.40;;;;;;5110525;27;20102;-39
2021/05/23 11:15:40;;;;;;;4.10;2.05;;;14.80;86.50;;;;;;5110527;27;20233;-41
2021/05/23 11:18:10;;;;;;;4.55;2.00;;;14.80;86.90;;;;;;5105247;28;20023;-40
2021/05/23 11:20:36;;;;;;;3.88;1.55;;;14.90;86.30;;;;;;5100968;28;20030;-40
2021/05/23 11:23:06;;;;;;;6.43;1.90;;;14.90;86.90;;;;;;5104753;28;20036;-39
2021/05/23 11:25:33;;;;;;;8.38;1.85;;;15.00;86.00;;;;;;5109581;28;20012;-39
2021/05/23 11:28:04;;;;;;;3.70;1.50;;;15.00;83.20;;;;;;5111992;28;20027;-42
2021/05/23 11:30:35;;;;;;;3.70;1.83;;;15.10;82.10;;;;;;5113251;28;20169;-40
2021/05/23 11:33:09;;;;;;;4.30;1.77;;;15.20;81.00;;;;;;5117853;28;20031;-40
2021/05/23 11:35:38;;;;;;;6.35;1.92;;;15.30;79.60;;;;;;5108854;27;20095;-41
2021/05/23 11:38:05;;;;;;;4.18;1.70;;;15.50;79.60;;;;;;5107207;28;20072;-40
2021/05/23 11:40:39;;;;;;;6.90;2.00;;;15.60;80.40;;;;;;5118221;27;20416;-46
2021/05/23 11:43:15;;;;;;;3.75;1.42;;;15.80;79.20;;;;;;5107442;28;20112;-39
2021/05/23 11:45:57;;;;;;;5.82;1.70;;;15.90;80.20;;;;;;5114202;28;20072;-41
2021/05/23 11:48:38;;;;;;;5.43;1.97;;;16.00;79.60;;;;;;5118172;27;20038;-41
2021/05/23 11:51:04;;;;;;;4.28;2.28;;;16.10;79.00;;;;;;5113383;27;20035;-41
2021/05/23 11:53:37;;;;;;;4.60;2.08;;;16.10;78.30;;;;;;5105913;28;20107;-42
2021/05/23 11:56:03;;;;;;;;;;;16.20;79.80;;;;;;5094425;28;20062;-40
2021/05/23 11:58:28;;;;;;;5.00;1.67;;;16.20;79.40;;;;;;5105208;28;20343;-39
2021/05/23 12:01:05;;;;;;;5.05;1.48;;;16.20;79.50;;;;;;5110251;28;20036;-41
2021/05/23 12:03:31;;;;;;;2.67;1.35;;;16.40;79.50;;;;;;5110492;28;20520;-41
2021/05/23 12:05:57;;;;;;;3.75;1.30;;;16.50;76.20;;;;;;5110152;28;20016;-40
2021/05/23 12:08:23;;;;;;;3.53;1.50;;;16.70;77.40;;;;;;5107273;27;20129;-40
2021/05/23 12:11:06;;;;;;;3.92;1.60;;;16.90;76.50;;;;;;5112458;28;20833;-41
2021/05/23 12:13:36;;;;;;;4.18;1.40;;;16.90;74.90;;;;;;5113729;28;20023;-39
2021/05/23 12:16:02;;;;;;;3.58;1.50;;;16.90;75.10;;;;;;5122279;27;20020;-39
2021/05/23 12:18:56;;;;;;;5.55;2.00;;;16.90;74.90;;;;;;5105062;28;20053;-41
2021/05/23 12:21:25;;;;;;;2.90;1.42;;;16.70;74.60;;;;;;5103523;28;20027;-40
2021/05/23 12:23:54;;;;;;;4.15;1.67;;;16.50;74.40;;;;;;5105290;28;20026;-40
2021/05/23 12:26:20;;;;;;;2.42;1.17;;;16.50;75.10;;;;;;5107998;28;20051;-41
2021/05/23 12:28:52;;;;;;;4.30;1.30;;;16.50;74.90;;;;;;5108683;27;20166;-40
2021/05/23 12:31:22;;;;;;;3.95;1.70;;;16.50;73.80;;;;;;5120051;27;20080;-40
2021/05/23 12:33:52;;;;;;;4.57;1.40;;;16.40;73.40;;;;;;5107413;27;20092;-40
2021/05/23 12:36:19;;;;;;;6.22;1.88;;;16.30;72.90;;;;;;5121572;27;20028;-41
2021/05/23 12:39:07;;;;;;;4.75;1.48;;;16.30;72.40;;;;;;5105180;28;20113;-41
2021/05/23 12:41:47;;;;;;;3.30;1.50;;;16.30;73.10;;;;;;5097039;28;20035;-41
2021/05/23 12:44:21;;;;;;;6.50;1.73;;;16.40;73.30;;;;;;5108861;27;20446;-41
2021/05/23 12:46:47;;;;;;;5.53;2.05;;;16.50;70.50;;;;;;5117648;27;20106;-41